Airport View

Enter AWOS ICAO identifier for current METAR.

ex. KFNL

KUCP 192056Z AUTO 00000KT 10SM CLR 17/03 A2993 RMK AO2 SLP153 6//// T01670028 56019 PNO $

19 Oct 2019 21:52

Frequency: 124.175

Phone: (724) 652-4184

Other Area AWOS: KBVI - KPJC - KYNG - KBTP

TAF KBVI 191726Z 1918/2018 13003KT P6SM BKN250 FM201200 15004KT P6SM BKN100